createdAt,value
2023-03-30T00:01:30.147Z,48.85
2023-03-30T00:04:00.783Z,48.47
2023-03-30T00:06:31.014Z,43.28
2023-03-30T00:09:02.658Z,49.55
2023-03-30T00:11:35.651Z,48.70
2023-03-30T00:14:05.300Z,46.75
2023-03-30T00:16:35.022Z,42.20
2023-03-30T00:19:04.848Z,41.20
2023-03-30T00:21:35.169Z,42.30
2023-03-30T00:24:04.794Z,46.70
2023-03-30T00:26:34.418Z,45.17
2023-03-30T00:29:03.953Z,46.08
2023-03-30T00:31:33.915Z,53.05
2023-03-30T00:34:03.598Z,48.28
2023-03-30T00:36:38.707Z,45.10
2023-03-30T00:39:10.054Z,47.25
2023-03-30T00:41:39.885Z,45.15
2023-03-30T00:44:30.545Z,48.08
2023-03-30T00:47:01.635Z,51.85
2023-03-30T00:49:33.633Z,55.10
2023-03-30T00:52:04.529Z,52.53
2023-03-30T00:54:34.306Z,45.53
2023-03-30T00:57:04.255Z,46.65
2023-03-30T00:59:34.065Z,46.63
2023-03-30T01:02:04.180Z,43.85
2023-03-30T01:04:34.055Z,47.03
2023-03-30T01:07:03.830Z,43.75
2023-03-30T01:09:34.404Z,44.05
2023-03-30T01:12:04.097Z,44.75
2023-03-30T01:14:34.567Z,46.78
2023-03-30T01:17:29.930Z,51.35
2023-03-30T01:20:38.917Z,44.88
2023-03-30T01:23:39.384Z,51.90
2023-03-30T01:26:40.097Z,47.42
2023-03-30T01:29:38.401Z,44.58
2023-03-30T01:32:46.731Z,40.90
2023-03-30T01:35:50.753Z,34.97
2023-03-30T01:38:55.776Z,39.42
2023-03-30T01:42:04.570Z,37.42
2023-03-30T01:45:11.707Z,39.10
2023-03-30T01:47:54.687Z,45.25
2023-03-30T01:50:41.204Z,40.40
2023-03-30T01:53:19.279Z,36.10
2023-03-30T01:56:02.568Z,38.63
2023-03-30T01:58:45.999Z,40.00
2023-03-30T02:01:19.324Z,36.83
2023-03-30T02:03:55.227Z,37.85
2023-03-30T02:06:58.372Z,37.25
2023-03-30T02:09:29.460Z,42.45
2023-03-30T02:12:00.917Z,37.17
2023-03-30T02:14:34.205Z,41.90
2023-03-30T02:17:18.833Z,32.05
2023-03-30T02:19:49.363Z,40.80
2023-03-30T02:22:21.059Z,43.33
2023-03-30T02:24:55.233Z,40.78
2023-03-30T02:27:25.973Z,37.58
2023-03-30T02:29:57.943Z,36.78
2023-03-30T02:32:32.089Z,38.97
2023-03-30T02:35:40.872Z,33.58
2023-03-30T02:38:42.603Z,39.58
2023-03-30T02:41:51.198Z,32.85
2023-03-30T02:44:59.996Z,38.70
2023-03-30T02:47:54.008Z,38.45
2023-03-30T02:50:47.944Z,42.30
2023-03-30T02:53:56.681Z,33.10
2023-03-30T02:56:46.072Z,33.38
2023-03-30T02:59:46.017Z,35.65
2023-03-30T03:02:24.334Z,41.42
2023-03-30T03:04:55.164Z,36.53
2023-03-30T03:07:26.602Z,34.33
2023-03-30T03:09:56.316Z,49.70
2023-03-30T03:12:26.800Z,35.72
2023-03-30T03:14:56.553Z,36.20
2023-03-30T03:17:31.113Z,39.83
2023-03-30T03:20:00.670Z,32.63
2023-03-30T03:22:30.272Z,38.47
2023-03-30T03:25:00.386Z,35.33
2023-03-30T03:27:30.290Z,33.83
2023-03-30T03:30:00.523Z,35.33
2023-03-30T03:32:30.217Z,32.15
2023-03-30T03:34:59.994Z,31.70
2023-03-30T03:37:29.593Z,33.47
2023-03-30T03:39:59.256Z,33.70
2023-03-30T03:42:28.975Z,35.30
2023-03-30T03:44:58.552Z,33.35
2023-03-30T03:47:28.255Z,32.10
2023-03-30T03:49:58.001Z,33.97
2023-03-30T03:52:27.547Z,33.33
2023-03-30T03:54:57.300Z,30.83
2023-03-30T03:57:27.179Z,36.15
2023-03-30T03:59:58.707Z,37.50
2023-03-30T04:02:29.423Z,32.97
2023-03-30T04:04:59.426Z,35.55
2023-03-30T04:07:29.136Z,39.40
2023-03-30T04:09:58.867Z,38.25
2023-03-30T04:12:28.823Z,37.42
2023-03-30T04:14:58.653Z,35.15
2023-03-30T04:17:28.662Z,32.72
2023-03-30T04:19:58.334Z,35.95
2023-03-30T04:22:27.958Z,35.58
2023-03-30T04:24:58.609Z,33.47
2023-03-30T04:27:30.299Z,34.97
2023-03-30T04:29:59.896Z,33.65
2023-03-30T04:32:29.530Z,34.35
2023-03-30T04:34:59.190Z,33.45
2023-03-30T04:37:32.061Z,32.80
2023-03-30T04:40:09.605Z,28.98
2023-03-30T04:42:42.453Z,30.83
2023-03-30T04:45:12.781Z,37.78
2023-03-30T04:47:42.520Z,32.85
2023-03-30T04:50:12.671Z,29.80
2023-03-30T04:52:42.581Z,27.85
2023-03-30T04:55:13.444Z,30.90
2023-03-30T04:57:43.171Z,27.48
2023-03-30T05:00:14.062Z,27.40
2023-03-30T05:02:43.954Z,32.13
2023-03-30T05:05:13.642Z,33.97
2023-03-30T05:07:43.260Z,32.55
2023-03-30T05:10:13.292Z,29.25
2023-03-30T05:12:43.481Z,30.60
2023-03-30T05:15:13.845Z,27.30
2023-03-30T05:17:43.577Z,26.83
2023-03-30T05:20:13.485Z,27.55
2023-03-30T05:22:43.411Z,28.90
2023-03-30T05:25:13.131Z,27.23
2023-03-30T05:27:42.751Z,28.02
2023-03-30T05:30:12.771Z,23.85
2023-03-30T05:32:42.466Z,29.75
2023-03-30T05:35:13.668Z,30.55
2023-03-30T05:37:43.412Z,25.00
2023-03-30T05:40:13.548Z,24.75
2023-03-30T05:42:43.198Z,27.65
2023-03-30T05:45:13.196Z,30.20
2023-03-30T05:47:42.798Z,28.35
2023-03-30T05:50:13.554Z,24.75
2023-03-30T05:52:44.396Z,26.25
2023-03-30T05:55:14.045Z,25.30
2023-03-30T05:57:43.800Z,26.25
2023-03-30T06:00:15.424Z,31.42
2023-03-30T06:02:45.155Z,23.73
2023-03-30T06:05:15.067Z,21.65
2023-03-30T06:07:45.204Z,23.90
2023-03-30T06:10:18.035Z,24.27
2023-03-30T06:12:47.673Z,27.88
2023-03-30T06:15:17.419Z,21.48
2023-03-30T06:17:48.373Z,25.50
2023-03-30T06:20:18.128Z,25.15
2023-03-30T06:22:47.912Z,26.20
2023-03-30T06:25:18.325Z,21.88
2023-03-30T06:27:49.138Z,26.60
2023-03-30T06:30:18.923Z,25.38
2023-03-30T06:32:48.748Z,23.63
2023-03-30T06:35:18.687Z,23.15
2023-03-30T06:37:48.676Z,23.60
2023-03-30T06:40:19.082Z,21.73
2023-03-30T06:42:51.927Z,22.88
2023-03-30T06:45:23.941Z,20.13
2023-03-30T06:47:53.678Z,22.33
2023-03-30T06:50:23.422Z,23.08
2023-03-30T06:52:53.212Z,19.05
2023-03-30T06:55:23.580Z,14.90
2023-03-30T06:57:53.432Z,13.73
2023-03-30T07:00:23.578Z,16.90
2023-03-30T07:02:53.463Z,22.02
2023-03-30T07:05:26.404Z,14.55
2023-03-30T07:07:56.482Z,16.45
2023-03-30T07:10:26.294Z,14.40
2023-03-30T07:12:57.081Z,19.65
2023-03-30T07:15:26.773Z,14.07
2023-03-30T07:17:56.506Z,14.57
2023-03-30T07:20:26.187Z,17.60
2023-03-30T07:22:55.901Z,15.30
2023-03-30T07:25:25.505Z,15.65
2023-03-30T07:27:55.186Z,14.63
2023-03-30T07:30:25.066Z,15.02
2023-03-30T07:32:56.982Z,15.60
2023-03-30T07:35:28.793Z,18.25
2023-03-30T07:38:03.277Z,18.45
2023-03-30T07:40:34.015Z,16.02
2023-03-30T07:43:03.642Z,16.48
2023-03-30T07:45:33.307Z,22.60
2023-03-30T07:48:03.313Z,17.80
2023-03-30T07:50:33.081Z,18.23
2023-03-30T07:53:02.866Z,21.45
2023-03-30T07:55:32.720Z,15.65
2023-03-30T07:58:02.613Z,19.58
2023-03-30T08:00:32.942Z,18.77
2023-03-30T08:03:03.490Z,20.20
2023-03-30T08:05:33.315Z,20.88
2023-03-30T08:08:02.944Z,18.40
2023-03-30T08:10:32.742Z,21.98
2023-03-30T08:13:04.093Z,21.17
2023-03-30T08:15:33.828Z,18.77
2023-03-30T08:18:06.017Z,21.17
2023-03-30T08:20:39.794Z,18.90
2023-03-30T08:23:10.851Z,23.25
2023-03-30T08:25:40.966Z,17.80
2023-03-30T08:28:11.213Z,18.52
2023-03-30T08:30:40.799Z,18.70
2023-03-30T08:33:10.960Z,20.23
2023-03-30T08:35:41.095Z,19.90
2023-03-30T08:38:11.693Z,21.48
2023-03-30T08:40:43.493Z,20.38
2023-03-30T08:43:44.865Z,17.23
2023-03-30T08:46:18.154Z,25.77
2023-03-30T08:48:48.947Z,21.42
2023-03-30T08:51:37.653Z,21.48
2023-03-30T08:54:09.567Z,20.73
2023-03-30T08:57:21.096Z,24.58
2023-03-30T09:00:19.508Z,20.50
2023-03-30T09:02:53.545Z,19.73
2023-03-30T09:05:34.137Z,18.00
2023-03-30T09:08:30.811Z,21.63
2023-03-30T09:11:06.809Z,19.33
2023-03-30T09:13:39.678Z,19.75
2023-03-30T09:16:29.153Z,21.17
2023-03-30T09:19:01.909Z,21.88
2023-03-30T09:21:33.613Z,19.85
2023-03-30T09:24:12.493Z,20.05
2023-03-30T09:26:50.378Z,19.27
2023-03-30T09:29:48.715Z,19.27
2023-03-30T09:32:44.329Z,16.58
2023-03-30T09:35:27.885Z,15.50
2023-03-30T09:37:57.605Z,18.83
2023-03-30T09:40:48.591Z,16.80
2023-03-30T09:43:35.072Z,17.17
2023-03-30T09:46:10.821Z,18.05
2023-03-30T09:48:44.214Z,16.95
2023-03-30T09:51:31.533Z,19.13
2023-03-30T09:54:04.578Z,15.32
2023-03-30T09:56:53.106Z,16.65
2023-03-30T09:59:43.717Z,17.73
2023-03-30T10:02:22.445Z,17.08
2023-03-30T10:05:02.358Z,19.05
2023-03-30T10:07:41.438Z,16.40
2023-03-30T10:10:31.073Z,15.27
2023-03-30T10:13:14.299Z,17.27
2023-03-30T10:15:47.820Z,19.23
2023-03-30T10:18:33.483Z,22.45
2023-03-30T10:21:29.204Z,20.30
2023-03-30T10:24:06.001Z,20.40
2023-03-30T10:26:39.392Z,21.47
2023-03-30T10:29:14.271Z,17.63
2023-03-30T10:31:48.004Z,20.73
2023-03-30T10:34:44.180Z,18.20
2023-03-30T10:37:18.381Z,17.25
2023-03-30T10:39:50.830Z,20.98
2023-03-30T10:42:24.132Z,17.33
2023-03-30T10:44:58.779Z,17.85
2023-03-30T10:48:08.419Z,19.10
2023-03-30T10:51:12.850Z,17.33
2023-03-30T10:53:56.865Z,17.50
2023-03-30T10:56:55.779Z,20.05
2023-03-30T10:59:54.386Z,20.85
2023-03-30T11:02:53.316Z,19.55
2023-03-30T11:05:32.663Z,26.38
2023-03-30T11:08:13.438Z,28.25
2023-03-30T11:10:50.975Z,30.33
2023-03-30T11:13:32.225Z,37.50
2023-03-30T11:16:18.737Z,24.17
2023-03-30T11:19:27.531Z,24.67
2023-03-30T11:22:36.341Z,21.70
2023-03-30T11:25:19.852Z,20.15
2023-03-30T11:27:58.564Z,21.85
2023-03-30T11:30:37.472Z,20.25
2023-03-30T11:33:44.998Z,18.70
2023-03-30T11:36:25.941Z,21.75
2023-03-30T11:39:11.800Z,17.60
2023-03-30T11:42:01.948Z,24.15
2023-03-30T11:44:31.822Z,17.88
2023-03-30T11:47:40.745Z,19.25
2023-03-30T11:50:28.020Z,29.05
2023-03-30T11:53:26.022Z,27.60
2023-03-30T11:56:14.886Z,27.05
2023-03-30T11:59:12.253Z,30.05
2023-03-30T12:04:42.276Z,35.85
2023-03-30T12:07:42.152Z,29.08
2023-03-30T12:10:30.157Z,35.75
2023-03-30T12:13:02.978Z,28.27
2023-03-30T12:16:03.161Z,31.60
2023-03-30T12:19:00.050Z,27.17
2023-03-30T12:21:36.201Z,36.05
2023-03-30T12:24:27.854Z,27.75
2023-03-30T12:27:05.039Z,29.67
2023-03-30T12:30:03.207Z,30.80
2023-03-30T12:32:37.533Z,32.97
2023-03-30T12:35:46.374Z,33.42
2023-03-30T12:38:23.467Z,36.55
2023-03-30T12:41:16.205Z,34.33
2023-03-30T12:44:24.999Z,34.65
2023-03-30T12:47:29.802Z,40.15
2023-03-30T12:50:32.287Z,30.25
2023-03-30T12:53:25.465Z,35.85
2023-03-30T12:56:34.295Z,39.67
2023-03-30T12:59:38.183Z,33.92
2023-03-30T13:02:48.037Z,30.20
2023-03-30T13:05:33.267Z,31.83
2023-03-30T13:08:12.392Z,32.72
2023-03-30T13:10:44.466Z,30.25
2023-03-30T13:13:43.515Z,25.15
2023-03-30T13:16:14.456Z,24.10
2023-03-30T13:18:59.356Z,28.42
2023-03-30T13:21:29.546Z,26.13
2023-03-30T13:24:28.124Z,25.38
2023-03-30T13:27:29.653Z,27.65
2023-03-30T13:30:05.099Z,32.00
2023-03-30T13:33:03.161Z,24.98
2023-03-30T13:36:08.077Z,27.38
2023-03-30T13:38:53.219Z,24.77
2023-03-30T13:41:50.277Z,28.40
2023-03-30T13:44:52.026Z,23.35
2023-03-30T13:48:00.821Z,29.52
2023-03-30T13:50:33.226Z,23.30
2023-03-30T13:53:10.115Z,25.75
2023-03-30T13:55:50.099Z,32.80
2023-03-30T13:58:39.528Z,27.58
2023-03-30T14:01:15.909Z,33.13
2023-03-30T14:03:58.780Z,27.98
2023-03-30T14:06:30.737Z,25.98
2023-03-30T14:09:24.400Z,26.20
2023-03-30T14:11:57.962Z,32.40
2023-03-30T14:14:51.861Z,29.60
2023-03-30T14:17:25.103Z,29.48
2023-03-30T14:20:23.630Z,29.00
2023-03-30T14:22:55.813Z,31.90
2023-03-30T14:25:30.894Z,23.10
2023-03-30T14:28:22.549Z,22.83
2023-03-30T14:30:58.526Z,26.40
2023-03-30T14:33:28.649Z,29.30
2023-03-30T14:36:00.438Z,25.75
2023-03-30T14:38:39.043Z,28.20
2023-03-30T14:41:22.218Z,32.55
2023-03-30T14:44:00.733Z,26.10
2023-03-30T14:46:45.144Z,24.02
2023-03-30T14:49:26.559Z,27.25
2023-03-30T14:52:06.570Z,26.85
2023-03-30T14:54:37.284Z,25.67
2023-03-30T14:57:10.236Z,31.48
2023-03-30T14:59:47.018Z,35.72
2023-03-30T15:02:30.440Z,26.00
2023-03-30T15:05:01.276Z,42.42
2023-03-30T15:07:35.655Z,37.90
2023-03-30T15:10:05.455Z,34.60
2023-03-30T15:12:41.288Z,39.45
2023-03-30T15:15:16.310Z,36.47
2023-03-30T15:17:52.537Z,39.33
2023-03-30T15:20:23.240Z,36.78
2023-03-30T15:22:54.949Z,27.45
2023-03-30T15:25:31.850Z,36.35
2023-03-30T15:28:11.405Z,26.80
2023-03-30T15:30:45.433Z,26.02
2023-03-30T15:33:38.521Z,32.55
2023-03-30T15:36:14.443Z,45.05
2023-03-30T15:38:57.423Z,36.65
2023-03-30T15:41:51.084Z,34.28
2023-03-30T15:44:22.850Z,36.63
2023-03-30T15:46:56.563Z,38.58
2023-03-30T15:49:42.338Z,35.15
2023-03-30T15:52:24.858Z,28.15
2023-03-30T15:54:57.749Z,28.42
2023-03-30T15:57:32.018Z,31.42
2023-03-30T16:00:13.498Z,27.92
2023-03-30T16:02:48.879Z,29.63
2023-03-30T16:05:22.655Z,27.40
2023-03-30T16:07:52.676Z,31.33
2023-03-30T16:10:31.245Z,32.78
2023-03-30T16:13:02.832Z,33.28
2023-03-30T16:15:34.983Z,40.35
2023-03-30T16:18:04.779Z,34.17
2023-03-30T16:20:35.544Z,33.42
2023-03-30T16:23:06.232Z,39.15
2023-03-30T16:25:44.923Z,34.30
2023-03-30T16:28:18.757Z,35.00
2023-03-30T16:30:51.592Z,35.38
2023-03-30T16:33:21.258Z,38.60
2023-03-30T16:35:50.942Z,35.95
2023-03-30T16:38:21.285Z,38.45
2023-03-30T16:40:58.077Z,35.55
2023-03-30T16:43:28.961Z,47.17
2023-03-30T16:45:58.736Z,39.70
2023-03-30T16:48:28.797Z,33.95
2023-03-30T16:50:58.700Z,42.92
2023-03-30T16:53:28.335Z,37.17
2023-03-30T16:55:58.096Z,35.75
2023-03-30T16:58:27.756Z,35.80
2023-03-30T17:01:04.797Z,37.47
2023-03-30T17:03:34.764Z,45.70
2023-03-30T17:06:04.393Z,42.88
2023-03-30T17:08:34.330Z,44.97
2023-03-30T17:11:09.306Z,43.40
2023-03-30T17:13:39.151Z,43.13
2023-03-30T17:16:09.311Z,44.55
2023-03-30T17:18:38.970Z,40.10
2023-03-30T17:21:11.470Z,44.38
2023-03-30T17:23:41.059Z,36.92
2023-03-30T17:26:14.557Z,38.13
2023-03-30T17:28:44.521Z,39.40
2023-03-30T17:31:24.038Z,35.45
2023-03-30T17:33:53.750Z,41.92
2023-03-30T17:36:26.427Z,38.45
2023-03-30T17:38:56.509Z,34.83
2023-03-30T17:41:26.251Z,42.17
2023-03-30T17:43:55.810Z,40.08
2023-03-30T17:46:25.606Z,39.65
2023-03-30T17:48:55.359Z,41.63
2023-03-30T17:51:25.021Z,56.47
2023-03-30T17:53:54.671Z,46.08
2023-03-30T17:56:24.333Z,47.05
2023-03-30T17:58:54.844Z,43.58
2023-03-30T18:01:24.614Z,44.15
2023-03-30T18:03:54.248Z,37.15
2023-03-30T18:06:23.894Z,42.40
2023-03-30T18:08:53.819Z,40.38
2023-03-30T18:11:24.300Z,38.65
2023-03-30T18:13:53.992Z,36.55
2023-03-30T18:16:26.038Z,52.28
2023-03-30T18:18:57.845Z,38.60
2023-03-30T18:21:29.233Z,38.85
2023-03-30T18:23:58.842Z,40.35
2023-03-30T18:26:28.770Z,50.58
2023-03-30T18:28:58.446Z,37.65
2023-03-30T18:31:28.002Z,49.53
2023-03-30T18:33:57.629Z,39.83
2023-03-30T18:36:27.470Z,44.13
2023-03-30T18:38:57.579Z,36.33
2023-03-30T18:41:27.604Z,43.47
2023-03-30T18:43:57.352Z,40.28
2023-03-30T18:46:27.241Z,43.33
2023-03-30T18:48:56.937Z,51.13
2023-03-30T18:51:26.624Z,48.88
2023-03-30T18:54:01.373Z,39.33
2023-03-30T18:56:31.018Z,41.80
2023-03-30T18:59:04.034Z,39.88
2023-03-30T19:01:34.651Z,39.25
2023-03-30T19:04:04.314Z,38.40
2023-03-30T19:06:34.170Z,44.80
2023-03-30T19:09:03.817Z,46.85
2023-03-30T19:11:34.362Z,45.28
2023-03-30T19:14:05.370Z,35.75
2023-03-30T19:16:35.094Z,38.80
2023-03-30T19:19:06.880Z,40.53
2023-03-30T19:21:36.713Z,43.95
2023-03-30T19:24:06.530Z,37.65
2023-03-30T19:26:37.455Z,37.85
2023-03-30T19:29:07.201Z,47.15
2023-03-30T19:31:38.386Z,41.85
2023-03-30T19:34:08.299Z,44.35
2023-03-30T19:36:38.168Z,55.00
2023-03-30T19:39:07.976Z,47.17
2023-03-30T19:41:37.917Z,42.47
2023-03-30T19:44:07.550Z,38.17
2023-03-30T19:46:37.351Z,35.13
2023-03-30T19:49:07.294Z,39.10
2023-03-30T19:51:37.164Z,42.67
2023-03-30T19:54:06.866Z,42.63
2023-03-30T19:56:36.479Z,42.72
2023-03-30T19:59:06.323Z,38.25
2023-03-30T20:01:36.009Z,38.10
2023-03-30T20:04:06.252Z,43.72
2023-03-30T20:06:37.596Z,41.10
2023-03-30T20:09:07.757Z,40.35
2023-03-30T20:11:37.409Z,45.10
2023-03-30T20:14:07.908Z,40.45
2023-03-30T20:16:37.528Z,42.90
2023-03-30T20:19:16.093Z,39.85
2023-03-30T20:21:53.581Z,37.10
2023-03-30T20:24:23.277Z,41.33
2023-03-30T20:26:53.829Z,40.17
2023-03-30T20:29:23.431Z,40.22
2023-03-30T20:31:53.198Z,41.55
2023-03-30T20:34:22.913Z,41.55
2023-03-30T20:36:52.769Z,45.38
2023-03-30T20:39:24.050Z,46.00
2023-03-30T20:41:59.604Z,43.72
2023-03-30T20:44:32.497Z,46.75
2023-03-30T20:47:03.423Z,52.60
2023-03-30T20:49:37.254Z,49.60
2023-03-30T20:52:06.963Z,43.50
2023-03-30T20:54:36.719Z,61.00
2023-03-30T20:57:07.144Z,44.90
2023-03-30T20:59:36.838Z,51.95
2023-03-30T21:02:06.669Z,55.67
2023-03-30T21:04:36.760Z,50.25
2023-03-30T21:07:06.527Z,50.38
2023-03-30T21:09:36.340Z,50.13
2023-03-30T21:12:06.256Z,50.22
2023-03-30T21:14:35.828Z,40.80
2023-03-30T21:17:05.682Z,42.28
2023-03-30T21:19:35.552Z,41.53
2023-03-30T21:22:05.903Z,44.10
2023-03-30T21:24:36.495Z,40.47
2023-03-30T21:27:06.520Z,41.20
2023-03-30T21:29:36.166Z,35.05
2023-03-30T21:32:05.908Z,43.47
2023-03-30T21:34:35.558Z,42.20
2023-03-30T21:37:05.328Z,45.08
2023-03-30T21:39:35.189Z,35.75
2023-03-30T21:42:06.846Z,43.42
2023-03-30T21:44:37.752Z,36.72
2023-03-30T21:47:07.568Z,36.90
2023-03-30T21:49:38.934Z,34.97
2023-03-30T21:52:08.677Z,39.28
2023-03-30T21:54:38.398Z,39.50
2023-03-30T21:57:08.279Z,39.63
2023-03-30T21:59:38.070Z,39.78
2023-03-30T22:02:07.910Z,42.65
2023-03-30T22:04:37.793Z,36.28
2023-03-30T22:07:07.661Z,45.03
2023-03-30T22:09:37.870Z,43.20
2023-03-30T22:12:08.401Z,48.33
2023-03-30T22:14:38.449Z,45.55
2023-03-30T22:17:09.424Z,44.65
2023-03-30T22:19:39.470Z,40.40
2023-03-30T22:22:09.590Z,40.28
2023-03-30T22:24:39.489Z,40.88
2023-03-30T22:27:10.544Z,40.97
2023-03-30T22:29:40.176Z,37.13
2023-03-30T22:32:11.493Z,43.53
2023-03-30T22:34:41.190Z,46.70
2023-03-30T22:37:10.762Z,42.17
2023-03-30T22:39:40.942Z,39.95
2023-03-30T22:42:11.074Z,34.58
2023-03-30T22:44:40.743Z,43.08
2023-03-30T22:47:10.564Z,40.65
